ADDS METAR Data INFO
IDs: Format: Raw Decoded Include TAF

Data at: 0857 UTC 19 Jun 2018

KHTL 190853Z AUTO 00000KT 3/4SM BR VV004 12/12 A3004 RMK AO2 SLP172 T01220117 50004
KHTL 190846Z AUTO 05003KT 3/4SM BR VV004 13/12 A3004 RMK AO2 T01280122
KHTL 190826Z AUTO 00000KT 1/2SM FG CLR 13/13 A3004 RMK AO2 T01330128
KHTL 190816Z AUTO 00000KT 3/4SM BR VV004 13/13 A3004 RMK AO2 T01330133
KHTL 190813Z AUTO 00000KT 1 1/4SM BR FEW003 14/13 A3004 RMK AO2 T01390133
KHTL 190753Z AUTO 00000KT 1/2SM FG VV003 14/13 A3004 RMK AO2 SLP171 T01390133
KHTL 190739Z AUTO 00000KT 3/4SM BR VV003 14/13 A3004 RMK AO2 T01390133
KHTL 190737Z AUTO 00000KT 1 1/4SM BR CLR 14/14 A3003 RMK AO2 T01440139
KHTL 190731Z AUTO 00000KT 2SM BR CLR 14/14 A3003 RMK AO2 T01440139
KHTL 190726Z AUTO 00000KT 1SM BR CLR 14/14 A3004 RMK AO2 T01440139
KHTL 190721Z AUTO 00000KT 1 3/4SM BR CLR 14/14 A3003 RMK AO2 T01440139
KHTL 190715Z AUTO 00000KT 10SM FEW002 15/14 A3004 RMK AO2 T01500144
KHTL 190707Z AUTO 00000KT 2SM BR FEW002 15/14 A3003 RMK AO2 T01500144
KHTL 190701Z AUTO 00000KT 1 1/4SM BR FEW002 14/14 A3004 RMK AO2 VIS 1/2V4 T01440139
KHTL 190653Z AUTO 00000KT 1/2SM FG VV002 14/14 A3003 RMK AO2 SLP167 T01440139
KHTL 190622Z AUTO 00000KT 3/4SM BR CLR 14/14 A3003 RMK AO2 T01440139
KHTL 190615Z AUTO 00000KT 1SM BR CLR 15/14 A3003 RMK AO2 T01500144
KHTL 190553Z AUTO 00000KT 3SM BR CLR 16/15 A3003 RMK AO2 SLP166 T01560150 10206 20156 51009
KHTL 190542Z AUTO 00000KT 1 1/2SM BR CLR 16/16 A3003 RMK AO2 VIS 1/2V5 T01560156
KHTL 190539Z AUTO 00000KT 2SM BR CLR 16/16 A3003 RMK AO2 VIS 1V5 T01610156
KHTL 190537Z AUTO 00000KT 1 1/4SM BR CLR 16/16 A3003 RMK AO2 VIS 1/2V4 T01610156
KHTL 190523Z AUTO 00000KT 3/4SM BR CLR 16/16 A3003 RMK AO2 T01610156
KHTL 190521Z AUTO 00000KT 1 1/4SM BR CLR 16/16 A3003 RMK AO2 T01610156
KHTL 190453Z AUTO 33003KT 10SM CLR 17/16 A3002 RMK AO2 SLP164 T01670161 402670167
KHTL 190353Z AUTO 35004KT 10SM CLR 18/17 A3002 RMK AO2 SLP161 T01830167
KHTL 190253Z AUTO 36004KT 10SM CLR 18/18 A3000 RMK AO2 SLP156 T01830178 53011
KHTL 190202Z AUTO 34003KT 10SM FEW005 FEW023 19/18 A2999 RMK AO2 T01890183
KHTL 190153Z AUTO 33003KT 10SM FEW023 19/18 A2998 RMK AO2 SLP149 T01940183
KHTL 190053Z AUTO 33005KT 10SM CLR 20/19 A2996 RMK AO2 SLP141 T02000189
KHTL 190023Z AUTO 31005KT 10SM SCT019 BKN100 21/19 A2997 RMK AO2 T02060189
KHTL 182353Z AUTO 32007KT 10SM SCT010 BKN018 OVC100 21/19 A2997 RMK AO2 SLP143 60006 T02060189 10244 20206 53009
KHTL 182303Z AUTO 32006KT 10SM SCT009 BKN012 OVC070 21/19 A2995 RMK AO2 T02110194
KHTL 182253Z AUTO 31006KT 10SM BKN012 OVC070 22/20 A2995 RMK AO2 RAB39E53 SLP137 P0000 T02170200
KHTL 182224Z AUTO 31005KT 10SM SCT011 BKN060 OVC075 21/19 A2995 RMK AO2 T02110194
KHTL 182213Z AUTO 32009KT 10SM BKN011 BKN060 OVC075 21/20 A2995 RMK AO2 T02110200
KHTL 182126Z AUTO 31006KT 3SM -RA BR FEW007 BKN031 OVC055 21/20 A2994 RMK AO2 P0006 T02110200
KHTL 182110Z AUTO 32010KT 2SM RA BR SCT007 OVC027 21/20 A2994 RMK AO2 P0003 T02110200
KHTL 182053Z AUTO 33007KT 7SM -RA FEW011 OVC025 22/20 A2993 RMK AO2 RAE06B53 SLP130 P0000 60000 T02220200 53002
KHTL 181953Z AUTO 31008KT 10SM -RA SCT018 OVC027 24/21 A2992 RMK AO2 RAB51 SLP126 P0000 T02390206
KHTL 181943Z AUTO 27004KT 10SM BKN029 OVC034 24/21 A2992 RMK AO2 T02440206
KHTL 181926Z AUTO 27006KT 10SM FEW017 SCT021 OVC032 24/21 A2992 RMK AO2 T02440206
KHTL 181906Z AUTO 27008KT 10SM BKN018 BKN024 BKN032 24/21 A2992 RMK AO2 T02390206
KHTL 181853Z AUTO 25009KT 10SM FEW021 SCT028 BKN032 24/21 A2992 RMK AO2 SLP126 T02390206
KHTL 181839Z AUTO 26007KT 10SM BKN030 24/21 A2992 RMK AO2 T02440206
KHTL 181753Z AUTO 28008KT 10SM SCT017 OVC023 24/21 A2992 RMK AO2 SLP127 60015 T02390206 10239 20217 55000
KHTL 181732Z AUTO 29006KT 10SM SCT014 BKN023 OVC028 24/21 A2992 RMK AO2 T02390211
KHTL 181653Z AUTO 27006KT 10SM BKN014 OVC018 23/21 A2991 RMK AO2 SLP122 T02330211
KHTL 181553Z AUTO 26007KT 10SM BKN010 BKN060 OVC100 22/21 A2992 RMK AO2 RAE37 SLP125 P0004 T02220206
KHTL 181544Z AUTO 27007KT 10SM SCT012 BKN060 OVC100 22/21 A2992 RMK AO2 RAE37 P0004 T02220211
KHTL 181453Z AUTO 26010KT 6SM -RA BR OVC009 22/21 A2992 RMK AO2 SLP127 P0010 60011 T02170206 51006
KHTL 181426Z AUTO 25008KT 6SM RA BR BKN010 BKN090 OVC110 22/21 A2993 RMK AO2 P0006 T02220206
KHTL 181402Z AUTO 28007KT 5SM RA BR FEW011 SCT100 BKN120 22/21 A2992 RMK AO2 P0001 T02220206
KHTL 181353Z AUTO 28007KT 10SM -RA BKN013 BKN110 22/21 A2992 RMK AO2 RAB17 SLP125 P0001 T02220206
KHTL 181335Z AUTO 28011KT 10SM -RA OVC013 22/21 A2992 RMK AO2 RAB17 P0000 T02220206
KHTL 181253Z AUTO 27010G18KT 10SM BKN015 OVC049 23/21 A2992 RMK AO2 SLP125 T02280206
KHTL 181218Z AUTO 25008KT 10SM BKN015 23/21 A2991 RMK AO2 T02280206
KHTL 181153Z AUTO 25009KT 10SM FEW017 23/21 A2990 RMK AO2 SLP118 60006 70007 T02280206 10244 20217 55000
KHTL 181136Z AUTO 25008KT 10SM FEW013 BKN017 23/21 A2991 RMK AO2 T02280211
KHTL 181105Z AUTO 25007KT 10SM BKN014 BKN021 23/21 A2991 RMK AO2 T02280211
KHTL 181053Z AUTO 27007KT 10SM SCT014 23/21 A2991 RMK AO2 RAE36 SLP119 P0001 T02280211
KHTL 180953Z AUTO 21008KT 9SM -RA FEW120 22/21 A2988 RMK AO2 SLP111 P0005 T02220206
KHTL 180853Z AUTO 25005KT 10SM -RA FEW034 SCT120 23/20 A2990 RMK AO2 RAB39 SLP118 P0000 60000 T02280200 55011
KHTL 180753Z AUTO 19005KT 10SM CLR 22/19 A2990 RMK AO2 SLP117 T02170189
KHTL 180653Z AUTO 00000KT 10SM FEW032 23/18 A2993 RMK AO2 SLP126 T02280183
KHTL 180553Z AUTO 31007KT 10SM SCT036 24/18 A2994 RMK AO2 SLP129 T02440183 10300 20244 53001
KHTL 180453Z AUTO 22009G16KT 10SM CLR 26/21 A2992 RMK AO2 SLP123 T02610206 403280178
KHTL 180353Z AUTO 22009KT 10SM CLR 26/21 A2993 RMK AO2 SLP126 T02610206
KHTL 180253Z AUTO 21006KT 10SM CLR 27/20 A2994 RMK AO2 SLP129 T02670200 51008
KHTL 180153Z AUTO 22008KT 10SM CLR 28/20 A2993 RMK AO2 SLP129 T02780200
KHTL 180053Z AUTO 22009G21KT 10SM CLR 28/20 A2992 RMK AO2 SLP123 T02830200
KHTL 172353Z AUTO 22009G19KT 10SM CLR 30/20 A2991 RMK AO2 SLP121 60001 T03000200 10322 20250 56010
KHTL 172153Z AUTO 23014G25KT 10SM FEW047 32/20 A2993 RMK AO2 PK WND 23026/2100 SLP129 T03170200